Time;durP1;ratioP1;P1;durP2;ratioP2;P2;SDS_P1;SDS_P2;PMS_P1;PMS_P2;Temp;Humidity;BMP_temperature;BMP_pressure;BME280_temperature;BME280_humidity;BME280_pressure;Samples;Min_cycle;Max_cycle;Signal;HPM_P1;HPM_P2
2022/01/25 00:29:29;;;;;;;9.10;5.60;;;;;;;5.12;64.14;99332.84;9845397;30;20403;-77
2022/01/25 00:34:50;;;;;;;5.55;4.55;;;;;;;5.10;64.14;99340.91;9848430;30;20048;-77
2022/01/25 00:40:11;;;;;;;7.55;5.25;;;;;;;5.07;64.06;99339.94;9845203;30;20083;-77
2022/01/25 00:45:33;;;;;;;8.63;5.50;;;;;;;5.09;64.34;99331.84;9832774;30;20484;-77
2022/01/25 00:51:03;;;;;;;7.43;6.05;;;;;;;5.08;64.31;99318.53;9845164;30;20376;-77
2022/01/25 00:56:31;;;;;;;7.22;5.05;;;;;;;5.05;64.22;99319.59;9858343;30;20599;-77
2022/01/25 01:01:53;;;;;;;9.00;5.10;;;;;;;5.04;64.52;99316.06;9856938;30;20048;-77
2022/01/25 01:07:16;;;;;;;6.25;4.70;;;;;;;5.03;64.24;99308.28;9832254;30;20135;-77
2022/01/25 01:29:53;;;;;;;5.47;4.60;;;;;;;4.98;64.57;99309.09;9846340;30;20135;-77
2022/01/25 01:41:21;;;;;;;4.97;3.90;;;;;;;4.95;64.02;99302.56;9865517;30;20044;-77
2022/01/25 01:46:58;;;;;;;5.30;3.90;;;;;;;4.94;64.16;99305.88;9875646;30;20058;-77
2022/01/25 01:52:19;;;;;;;6.10;4.00;;;;;;;4.92;64.16;99305.63;9862387;30;20048;-77
2022/01/25 01:57:41;;;;;;;4.78;3.78;;;;;;;4.90;64.29;99306.13;9850208;30;20062;-77
2022/01/25 02:03:03;;;;;;;5.70;3.50;;;;;;;4.92;64.12;99291.78;9862078;30;20376;-77
2022/01/25 02:08:24;;;;;;;4.82;3.33;;;;;;;4.93;64.35;99287.78;9837522;30;20067;-77
2022/01/25 02:13:46;;;;;;;7.07;3.22;;;;;;;4.91;64.62;99287.53;9862000;30;20059;-77
2022/01/25 02:24:47;;;;;;;4.95;3.63;;;;;;;4.82;64.52;99281.06;9853543;30;20048;-76
2022/01/25 02:30:10;;;;;;;6.00;3.53;;;;;;;4.82;64.55;99278.28;9849191;30;20506;-77
2022/01/25 02:35:31;;;;;;;5.72;4.00;;;;;;;4.83;64.61;99282.59;9860932;30;20051;-77
2022/01/25 02:40:53;;;;;;;6.30;4.45;;;;;;;4.84;64.56;99272.25;9848714;30;20055;-77
2022/01/25 02:51:42;;;;;;;6.07;5.03;;;;;;;4.81;64.95;99264.97;9872763;30;20044;-77
2022/01/25 02:57:04;;;;;;;5.82;4.63;;;;;;;4.81;64.64;99268.50;9848490;30;20048;-77
2022/01/25 03:02:24;;;;;;;6.80;5.18;;;;;;;4.81;64.81;99262.22;9847814;30;20051;-77
2022/01/25 03:07:45;;;;;;;7.38;5.78;;;;;;;4.77;64.42;99259.75;9847456;30;20060;-77
2022/01/25 03:13:12;;;;;;;5.80;4.90;;;;;;;4.76;64.72;99247.19;9847400;30;20047;-77
2022/01/25 03:23:55;;;;;;;6.00;4.00;;;;;;;4.75;64.67;99223.56;9859098;30;20058;-77
2022/01/25 03:29:17;;;;;;;6.47;4.55;;;;;;;4.72;64.13;99210.75;9846626;30;20089;-77
2022/01/25 03:34:38;;;;;;;6.28;4.60;;;;;;;4.64;64.43;99214.63;9856616;30;20052;-77
2022/01/25 03:39:59;;;;;;;7.43;5.13;;;;;;;4.63;64.30;99213.13;9845748;30;20070;-77
2022/01/25 03:45:22;;;;;;;5.35;4.72;;;;;;;4.62;65.14;99217.91;9846347;30;20052;-77
2022/01/25 03:50:48;;;;;;;5.57;4.47;;;;;;;4.62;64.90;99217.91;9847226;30;20407;-77
2022/01/25 03:56:09;;;;;;;7.00;4.38;;;;;;;4.57;64.94;99215.97;9845936;30;20063;-77
2022/01/25 04:01:31;;;;;;;4.68;4.18;;;;;;;4.59;64.59;99213.41;9857983;30;20381;-77
2022/01/25 04:06:53;;;;;;;4.40;3.38;;;;;;;4.59;64.62;99214.16;9845563;30;20106;-77
2022/01/25 04:12:17;;;;;;;4.13;3.00;;;;;;;4.54;64.39;99211.47;9857905;30;20139;-77
2022/01/25 04:17:39;;;;;;;4.55;3.42;;;;;;;4.50;64.66;99213.75;9845303;30;20130;-77
2022/01/25 04:28:40;;;;;;;4.63;3.38;;;;;;;4.48;64.15;99211.50;9859605;30;20129;-77
2022/01/25 04:34:12;;;;;;;3.25;2.70;;;;;;;4.47;64.72;99206.50;9844962;30;20117;-77
2022/01/25 04:56:24;;;;;;;4.33;3.83;;;;;;;4.44;64.71;99190.94;9843285;30;20052;-77
2022/01/25 05:01:47;;;;;;;5.45;3.53;;;;;;;4.40;64.97;99184.94;9829768;30;20062;-78
2022/01/25 05:12:44;;;;;;;5.75;4.10;;;;;;;4.40;64.86;99154.53;9869855;30;20073;-78
2022/01/25 05:18:35;;;;;;;6.28;5.05;;;;;;;4.31;64.84;99155.63;9847113;30;20044;-77
2022/01/25 05:23:57;;;;;;;6.55;4.85;;;;;;;4.23;64.66;99155.44;9849092;30;20054;-78
2022/01/25 05:29:18;;;;;;;6.68;4.07;;;;;;;4.21;64.97;99185.63;9845305;30;20059;-78
2022/01/25 05:34:39;;;;;;;6.03;4.43;;;;;;;4.18;64.68;99194.22;9859071;30;20123;-77
2022/01/25 05:40:01;;;;;;;7.88;5.30;;;;;;;4.18;65.01;99202.50;9859936;30;20047;-77
2022/01/25 05:51:18;;;;;;;6.00;4.60;;;;;;;4.09;65.35;99203.59;9838271;30;20138;-78
2022/01/25 05:56:39;;;;;;;5.93;3.85;;;;;;;4.14;64.94;99196.50;9849289;30;20123;-78
2022/01/25 06:02:00;;;;;;;4.15;3.53;;;;;;;4.10;65.22;99209.84;9858784;30;20079;-78
2022/01/25 06:07:22;;;;;;;5.38;3.75;;;;;;;4.08;65.49;99188.28;9848426;30;20078;-78
2022/01/25 06:12:45;;;;;;;4.85;4.18;;;;;;;4.08;65.23;99188.28;9849347;30;20047;-78
2022/01/25 06:18:05;;;;;;;5.75;3.83;;;;;;;4.04;65.33;99198.84;9861756;30;20059;-78
2022/01/25 06:23:26;;;;;;;5.93;4.30;;;;;;;4.02;65.52;99212.44;9861232;30;20044;-78
2022/01/25 06:28:47;;;;;;;5.95;3.72;;;;;;;3.99;65.33;99213.47;9861419;30;20108;-78
2022/01/25 06:34:08;;;;;;;4.78;3.47;;;;;;;4.01;65.22;99206.16;9849167;30;20113;-78
2022/01/25 06:39:29;;;;;;;5.80;4.20;;;;;;;4.02;65.59;99215.19;9848722;30;20172;-78
2022/01/25 06:44:54;;;;;;;7.60;4.65;;;;;;;4.01;65.64;99216.47;9848513;30;20048;-78
2022/01/25 06:50:17;;;;;;;4.85;3.63;;;;;;;3.96;65.89;99214.50;9849533;30;20135;-78
2022/01/25 06:55:39;;;;;;;7.65;5.03;;;;;;;3.91;65.41;99218.81;9847566;30;20112;-78
2022/01/25 07:01:00;;;;;;;4.80;4.07;;;;;;;3.95;65.47;99224.03;9835661;30;20048;-78
2022/01/25 07:06:21;;;;;;;7.07;4.63;;;;;;;3.94;65.71;99236.34;9822916;30;20088;-78
2022/01/25 07:11:42;;;;;;;6.97;4.93;;;;;;;3.87;65.76;99234.16;9799005;30;20048;-78
2022/01/25 07:17:04;;;;;;;6.82;4.88;;;;;;;3.87;65.82;99245.22;9822721;30;20127;-78
2022/01/25 07:22:27;;;;;;;4.15;3.72;;;;;;;3.88;65.66;99230.88;9822929;30;20118;-78
2022/01/25 07:27:48;;;;;;;7.68;5.15;;;;;;;3.88;65.59;99236.41;9822774;30;20052;-77
2022/01/25 07:33:09;;;;;;;12.07;7.38;;;;;;;3.92;66.09;99253.44;9810385;30;20618;-77
2022/01/25 07:38:37;;;;;;;7.30;5.68;;;;;;;3.95;65.71;99249.66;9812053;30;20044;-78
2022/01/25 07:44:07;;;;;;;7.13;5.30;;;;;;;3.90;66.77;99236.63;9823722;30;20048;-78
2022/01/25 07:49:35;;;;;;;7.45;5.55;;;;;;;3.95;66.29;99229.56;9822733;30;20056;-78
2022/01/25 07:54:56;;;;;;;6.18;4.75;;;;;;;3.94;66.00;99230.81;9809752;30;20052;-77
2022/01/25 08:00:18;;;;;;;7.90;5.53;;;;;;;3.97;65.97;99229.81;9809859;30;20412;-77
2022/01/25 08:05:39;;;;;;;8.82;6.05;;;;;;;3.96;66.29;99234.59;9821361;30;20060;-78
2022/01/25 08:11:20;;;;;;;7.80;5.60;;;;;;;3.95;66.42;99240.59;9798780;30;20070;-77
2022/01/25 08:16:50;;;;;;;8.88;6.28;;;;;;;3.90;66.46;99242.16;9833576;30;20147;-77
2022/01/25 08:22:33;;;;;;;11.82;6.95;;;;;;;3.93;66.64;99241.13;9809485;30;20064;-77
2022/01/25 08:28:00;;;;;;;10.20;7.63;;;;;;;3.96;66.85;99242.88;9810210;30;20087;-78
2022/01/25 08:33:41;;;;;;;8.85;6.88;;;;;;;4.01;66.47;99239.31;9813683;30;20051;-77
2022/01/25 08:39:16;;;;;;;;;;;;;;;3.98;66.52;99234.81;9699038;30;20061;-78
2022/01/25 08:44:40;;;;;;;12.63;8.05;;;;;;;4.01;66.96;99235.81;9737205;30;19966;-77
2022/01/25 08:50:11;;;;;;;11.77;7.25;;;;;;;4.00;67.11;99234.31;9739932;30;20133;-78
2022/01/25 08:55:55;;;;;;;10.60;7.25;;;;;;;3.99;67.07;99230.78;9728581;30;20061;-78
2022/01/25 09:01:22;;;;;;;11.70;7.35;;;;;;;3.99;67.08;99219.75;9802359;30;20577;-77
2022/01/25 09:06:46;;;;;;;11.52;8.32;;;;;;;4.01;67.23;99210.94;9827809;30;20126;-78
2022/01/25 09:12:09;;;;;;;10.73;8.20;;;;;;;4.05;67.05;99205.13;9816309;30;20058;-77
2022/01/25 09:17:30;;;;;;;9.50;7.97;;;;;;;4.01;66.97;99205.41;9827586;30;20090;-78
2022/01/25 09:22:51;;;;;;;9.27;7.60;;;;;;;4.04;67.52;99198.84;9827110;30;20072;-77
2022/01/25 09:28:27;;;;;;;11.68;7.40;;;;;;;4.07;67.17;99203.34;9809002;30;20052;-77
2022/01/25 09:33:48;;;;;;;10.77;7.40;;;;;;;4.08;67.47;99202.09;9839042;30;20048;-77
2022/01/25 09:39:09;;;;;;;10.60;7.28;;;;;;;4.17;67.16;99192.72;9849058;30;20048;-76
2022/01/25 09:44:30;;;;;;;8.52;6.97;;;;;;;4.13;67.39;99209.56;9850775;30;20130;-77
2022/01/25 09:49:51;;;;;;;11.27;7.35;;;;;;;4.12;67.56;99204.56;9850478;30;20468;-76
2022/01/25 09:55:17;;;;;;;9.13;6.30;;;;;;;4.18;67.64;99197.72;9850368;30;20512;-77
2022/01/25 10:00:38;;;;;;;10.77;6.97;;;;;;;4.15;67.09;99195.22;9850513;30;20051;-77
2022/01/25 10:06:02;;;;;;;9.35;5.95;;;;;;;4.16;67.59;99194.75;9849646;30;20381;-77
2022/01/25 10:11:25;;;;;;;9.45;6.53;;;;;;;4.21;67.24;99184.88;9850376;30;20071;-77
2022/01/25 10:16:56;;;;;;;8.85;6.13;;;;;;;4.23;67.09;99183.09;9838822;30;20079;-77
2022/01/25 10:22:17;;;;;;;7.80;5.63;;;;;;;4.31;67.50;99184.03;9850214;30;20051;-78
2022/01/25 10:28:06;;;;;;;8.23;6.47;;;;;;;4.36;67.17;99178.97;9896052;30;20055;-84
2022/01/25 10:33:34;;;;;;;9.75;6.13;;;;;;;4.38;66.91;99181.97;9885878;30;20099;-80
2022/01/25 10:38:55;;;;;;;8.95;6.63;;;;;;;4.37;67.19;99197.06;9864206;30;20058;-79
2022/01/25 10:44:16;;;;;;;10.73;6.65;;;;;;;4.37;67.26;99194.28;9866029;30;20054;-80
2022/01/25 10:49:48;;;;;;;9.00;6.50;;;;;;;4.42;67.42;99193.47;9869525;29;20067;-80
2022/01/25 10:55:09;;;;;;;9.90;7.20;;;;;;;4.46;67.84;99177.38;9865235;30;20035;-82
2022/01/25 12:10:31;;;;;;;7.28;5.10;;;;;;;5.10;65.86;99127.78;10670179;24;20045;-81
2022/01/25 12:16:26;;;;;;;9.52;5.03;;;;;;;5.18;65.23;99131.44;10041242;29;20037;-79
2022/01/25 13:21:07;;;;;;;7.05;4.47;;;;;;;4.90;64.61;99095.84;11902124;24;19924;-78
2022/01/25 13:26:31;;;;;;;5.65;4.45;;;;;;;4.90;65.01;99090.31;9956774;29;20108;-78
2022/01/25 13:31:52;;;;;;;7.93;4.68;;;;;;;4.89;64.17;99086.06;9985942;29;20062;-78
2022/01/25 13:37:20;;;;;;;7.13;4.18;;;;;;;4.85;64.24;99080.09;9962353;29;20050;-78
2022/01/25 13:42:57;;;;;;;5.82;3.90;;;;;;;4.80;64.55;99089.19;9962260;29;20054;-78
2022/01/25 13:48:20;;;;;;;5.45;4.20;;;;;;;4.78;64.19;99081.41;9963222;29;20535;-78
2022/01/25 13:53:41;;;;;;;6.32;3.67;;;;;;;4.79;64.34;99082.91;9960847;29;20050;-78
2022/01/25 13:59:03;;;;;;;5.35;3.35;;;;;;;4.76;64.40;99075.66;9948844;29;20466;-78
2022/01/25 14:04:28;;;;;;;5.97;3.80;;;;;;;4.81;64.19;99083.13;9960965;29;20103;-78
2022/01/25 14:09:50;;;;;;;8.15;4.57;;;;;;;4.79;64.48;99082.91;9972884;29;20061;-78
2022/01/25 14:26:30;;;;;;;6.30;3.90;;;;;;;4.76;63.71;99086.72;9975252;29;20062;-78
2022/01/25 14:31:53;;;;;;;4.57;3.88;;;;;;;4.75;63.89;99082.47;9947757;29;20079;-78
2022/01/25 14:37:14;;;;;;;5.53;4.00;;;;;;;4.72;63.93;99080.00;9947799;29;20054;-78
2022/01/25 14:42:38;;;;;;;5.88;4.05;;;;;;;4.69;63.65;99084.56;9959609;29;20109;-78
2022/01/25 14:48:00;;;;;;;6.35;4.70;;;;;;;4.68;63.46;99079.56;9972690;29;20046;-78
2022/01/25 14:53:21;;;;;;;6.90;4.60;;;;;;;4.68;63.68;99074.75;9972069;29;20062;-78
2022/01/25 15:04:12;;;;;;;5.80;4.40;;;;;;;4.64;63.70;99081.88;9973138;29;20055;-78
2022/01/25 15:09:34;;;;;;;6.78;4.60;;;;;;;4.64;63.67;99076.34;9959252;29;20137;-78
2022/01/25 15:15:03;;;;;;;6.68;4.88;;;;;;;4.64;63.71;99076.34;9971040;29;20051;-78
2022/01/25 15:20:24;;;;;;;8.60;4.55;;;;;;;4.64;63.46;99074.31;9959774;29;20705;-78
2022/01/25 15:25:45;;;;;;;6.65;5.03;;;;;;;4.62;63.11;99078.88;9945739;29;20421;-78
2022/01/25 15:31:08;;;;;;;7.40;5.20;;;;;;;4.58;63.57;99070.88;9958659;29;20092;-78
2022/01/25 15:36:31;;;;;;;7.07;4.82;;;;;;;4.55;63.53;99088.53;9983315;29;20042;-78
2022/01/25 15:41:56;;;;;;;8.98;4.18;;;;;;;4.52;63.46;99076.47;9958342;29;20065;-77
2022/01/25 15:47:19;;;;;;;9.13;5.55;;;;;;;4.51;63.18;99074.22;9958697;29;20103;-77
2022/01/25 15:52:43;;;;;;;7.50;4.97;;;;;;;4.45;63.06;99076.31;9985232;29;20375;-80
2022/01/25 15:58:08;;;;;;;7.65;4.80;;;;;;;4.42;63.18;99077.34;10024354;29;20046;-81
2022/01/25 16:03:32;;;;;;;8.18;4.88;;;;;;;4.40;63.48;99080.63;9986010;29;20061;-80
2022/01/25 16:08:54;;;;;;;8.80;5.07;;;;;;;4.37;63.62;99080.94;9971323;29;20051;-79
2022/01/25 16:14:35;;;;;;;9.77;5.22;;;;;;;4.36;63.45;99079.44;9964517;29;20191;-78
2022/01/25 16:19:55;;;;;;;8.45;5.03;;;;;;;4.33;63.37;99081.22;9972942;29;20512;-79
2022/01/25 16:25:16;;;;;;;8.82;4.93;;;;;;;4.35;62.89;99083.47;9957385;29;20055;-76
2022/01/25 16:30:37;;;;;;;6.95;4.85;;;;;;;4.35;63.61;99083.47;9981873;29;20046;-76
2022/01/25 16:35:58;;;;;;;8.20;5.25;;;;;;;4.34;63.13;99081.97;9944004;29;20058;-75
2022/01/25 16:41:18;;;;;;;10.38;5.80;;;;;;;4.34;63.46;99088.25;9981868;29;20046;-75
2022/01/25 16:46:39;;;;;;;9.65;6.20;;;;;;;4.36;63.14;99090.50;9956214;29;20055;-76
2022/01/25 16:52:00;;;;;;;10.73;6.90;;;;;;;4.37;63.62;99094.75;9981378;29;20600;-77
2022/01/25 16:57:20;;;;;;;9.27;5.95;;;;;;;4.32;63.42;99086.00;9968640;29;20058;-78
2022/01/25 17:15:13;;;;;;;9.73;6.43;;;;;;;4.30;63.34;99096.84;11958590;24;20054;-82
2022/01/25 17:26:50;;;;;;;10.63;7.07;;;;;;;4.38;63.41;99087.97;10613765;24;20101;-81
2022/01/25 17:32:12;;;;;;;14.80;7.43;;;;;;;4.34;63.22;99087.50;10139980;24;20058;-80
2022/01/25 17:37:33;;;;;;;11.18;7.60;;;;;;;4.35;63.20;99092.53;9953204;29;20047;-80
2022/01/25 17:43:08;;;;;;;13.18;7.88;;;;;;;4.37;63.43;99100.28;11966588;24;20112;31
2022/01/25 17:48:39;;;;;;;11.32;7.90;;;;;;;4.35;63.33;99111.88;10566570;24;20062;-77
2022/01/25 17:54:00;;;;;;;11.25;8.00;;;;;;;4.35;63.47;99102.84;9962782;29;20409;-77
2022/01/25 17:59:21;;;;;;;11.35;8.15;;;;;;;4.35;63.32;99108.38;9980000;29;20034;-80
2022/01/25 18:04:42;;;;;;;13.90;8.43;;;;;;;4.36;62.87;99115.38;9958852;29;20051;-80
2022/01/25 18:10:03;;;;;;;12.43;8.65;;;;;;;4.35;63.22;99116.66;9974311;29;20046;-81
2022/01/25 18:15:24;;;;;;;14.15;8.85;;;;;;;4.32;63.15;99110.88;9948618;29;20054;-78
2022/01/25 18:20:45;;;;;;;13.25;8.60;;;;;;;4.32;63.49;99110.88;10167932;24;20033;-80
2022/01/25 18:26:17;;;;;;;10.75;7.72;;;;;;;4.29;63.40;99109.16;10041643;29;20034;-78
2022/01/25 18:32:24;;;;;;;11.77;8.68;;;;;;;4.30;63.07;99104.38;10053874;24;20047;31
2022/01/25 18:37:46;;;;;;;12.90;8.35;;;;;;;4.31;63.20;99117.69;9863751;30;20063;-80
2022/01/25 18:43:10;;;;;;;13.10;9.38;;;;;;;4.28;63.48;99121.50;9849348;30;20032;-80
2022/01/25 18:48:36;;;;;;;11.48;7.60;;;;;;;4.31;63.40;99112.16;9834155;30;20050;-81
2022/01/25 19:06:30;;;;;;;13.95;9.63;;;;;;;4.30;63.19;99116.19;10117204;24;20069;-79
2022/01/25 19:11:51;;;;;;;14.88;8.73;;;;;;;4.31;62.89;99120.44;10036455;29;20030;-81
2022/01/25 19:17:12;;;;;;;11.88;8.45;;;;;;;4.28;63.06;99107.66;10136780;24;20090;-81
2022/01/25 19:22:33;;;;;;;11.93;8.57;;;;;;;4.27;62.63;99108.94;10028044;29;20046;-83
2022/01/25 19:27:54;;;;;;;13.43;8.88;;;;;;;4.26;62.96;99109.47;10031432;29;20050;-80
2022/01/25 19:33:15;;;;;;;10.00;7.72;;;;;;;4.27;62.79;99110.97;10015150;29;20053;-79
2022/01/25 19:38:36;;;;;;;12.27;7.78;;;;;;;4.28;62.88;99115.97;9986596;29;20056;-79
2022/01/25 19:43:57;;;;;;;12.93;8.63;;;;;;;4.24;63.23;99111.97;9995896;29;20053;-78
2022/01/25 19:49:19;;;;;;;13.13;9.60;;;;;;;4.21;63.28;99113.03;9982793;29;20046;-77
2022/01/25 19:54:41;;;;;;;14.40;10.30;;;;;;;4.15;63.36;99110.34;10008352;29;20045;-79
2022/01/25 20:00:05;;;;;;;16.13;10.82;;;;;;;4.18;63.58;99116.84;10010040;29;20048;-81
2022/01/25 20:05:27;;;;;;;18.20;11.70;;;;;;;4.17;63.93;99113.31;10033124;29;20046;-81
2022/01/25 20:29:55;;;;;;;20.10;13.57;;;;;;;4.06;63.95;99130.00;9888928;30;20060;-79
2022/01/25 20:35:18;;;;;;;21.80;14.63;;;;;;;4.06;64.25;99113.44;9914111;30;20047;-79
2022/01/25 20:40:39;;;;;;;22.95;13.85;;;;;;;4.08;63.89;99121.94;9870433;30;20059;-77
2022/01/25 20:46:01;;;;;;;19.08;13.48;;;;;;;4.06;64.09;99118.22;9871679;30;20043;-77
2022/01/25 20:51:27;;;;;;;20.08;13.02;;;;;;;4.02;63.83;99119.22;9857609;30;20074;-77
2022/01/25 20:56:47;;;;;;;18.75;12.30;;;;;;;4.06;63.82;99116.19;9871998;30;20054;-77
2022/01/25 21:02:10;;;;;;;17.10;11.60;;;;;;;4.10;63.61;99113.13;9891111;30;20062;-80
2022/01/25 21:07:32;;;;;;;19.45;11.82;;;;;;;4.10;64.33;99115.91;9847884;30;20043;-79
2022/01/25 21:12:53;;;;;;;18.92;12.75;;;;;;;4.06;64.15;99107.91;9862533;30;20052;-82
2022/01/25 21:18:14;;;;;;;22.73;12.57;;;;;;;4.04;64.39;99107.66;9999879;24;20051;-81
2022/01/25 21:23:37;;;;;;;19.55;12.77;;;;;;;4.04;64.33;99091.06;9943662;29;20035;-84
2022/01/25 21:28:59;;;;;;;19.40;13.43;;;;;;;4.04;64.52;99096.59;9901885;30;20143;-81
2022/01/25 21:34:20;;;;;;;19.13;13.55;;;;;;;4.07;64.60;99098.34;9889175;30;20090;-78
2022/01/25 21:39:42;;;;;;;19.95;12.57;;;;;;;4.04;64.66;99102.13;9891747;30;20055;-78
2022/01/25 21:45:03;;;;;;;19.65;12.80;;;;;;;4.02;64.86;99101.91;9892906;30;20047;-78
2022/01/25 21:50:25;;;;;;;20.38;13.55;;;;;;;4.01;65.02;99094.88;9905933;29;20055;-78
2022/01/25 21:55:45;;;;;;;22.27;13.93;;;;;;;3.98;64.94;99101.47;9896037;30;20043;-78
2022/01/25 22:01:06;;;;;;;21.10;14.13;;;;;;;3.95;65.08;99091.41;9896774;30;20054;-78
2022/01/25 22:06:38;;;;;;;22.50;13.30;;;;;;;3.96;65.20;99101.22;9899698;30;20047;-78
2022/01/25 22:12:09;;;;;;;20.10;12.88;;;;;;;3.88;65.10;99092.00;9910324;29;20055;-78
2022/01/25 22:17:30;;;;;;;18.52;13.13;;;;;;;3.90;64.95;99087.47;9897665;29;20066;-78
2022/01/25 22:22:51;;;;;;;20.48;13.25;;;;;;;3.88;65.19;99080.97;9909079;30;20116;-78
2022/01/25 22:28:11;;;;;;;23.77;14.13;;;;;;;3.89;65.35;99082.44;9898537;30;20047;-78
2022/01/25 22:33:40;;;;;;;24.75;13.85;;;;;;;3.85;65.11;99076.44;9898585;30;20479;-78
2022/01/25 22:39:12;;;;;;;19.90;13.70;;;;;;;3.86;65.10;99072.41;9911206;29;20395;-78
2022/01/25 22:44:35;;;;;;;19.95;13.05;;;;;;;3.84;65.39;99072.19;9906856;29;20043;-78
2022/01/25 22:49:56;;;;;;;18.83;12.23;;;;;;;3.85;64.72;99062.63;9893286;29;20063;-78
2022/01/25 22:55:19;;;;;;;19.35;12.32;;;;;;;3.84;64.81;99061.16;9880346;29;20502;-78
2022/01/25 23:00:41;;;;;;;18.70;12.50;;;;;;;3.83;64.81;99065.91;9893406;29;20051;-77
2022/01/25 23:06:03;;;;;;;16.52;9.15;;;;;;;3.85;64.53;99065.41;9924646;29;20107;-78
2022/01/25 23:11:24;;;;;;;17.83;12.10;;;;;;;3.86;64.50;99066.91;9911585;29;20047;-77
2022/01/25 23:16:53;;;;;;;18.10;11.82;;;;;;;3.82;64.85;99061.66;9902552;29;20052;-78
2022/01/25 23:22:15;;;;;;;18.38;12.18;;;;;;;3.79;65.17;99064.72;9895898;29;20043;-78
2022/01/25 23:27:37;;;;;;;17.60;11.65;;;;;;;3.82;65.04;99063.69;9891303;29;20140;-77
2022/01/25 23:38:30;;;;;;;16.25;10.63;;;;;;;3.81;65.17;99060.16;9904770;29;20182;-78
2022/01/25 23:43:56;;;;;;;17.02;11.65;;;;;;;3.82;64.80;99050.63;9893662;29;20064;-78
2022/01/25 23:49:19;;;;;;;15.25;10.35;;;;;;;3.81;65.25;99051.88;9907796;30;20071;-78
